createdAt,value
2018-08-11T00:02:23.644Z,6.85
2018-08-11T00:04:51.712Z,7.25
2018-08-11T00:07:19.776Z,9.23
2018-08-11T00:09:47.832Z,8.85
2018-08-11T00:12:15.888Z,7.97
2018-08-11T00:14:43.948Z,8.80
2018-08-11T00:17:12.024Z,4.90
2018-08-11T00:19:40.065Z,8.33
2018-08-11T00:22:08.120Z,7.50
2018-08-11T00:24:36.172Z,8.93
2018-08-11T00:27:04.265Z,4.87
2018-08-11T00:29:32.316Z,7.78
2018-08-11T00:32:00.379Z,8.03
2018-08-11T00:34:28.420Z,7.80
2018-08-11T00:36:56.474Z,7.53
2018-08-11T00:39:24.512Z,7.97
2018-08-11T00:41:52.576Z,7.50
2018-08-11T00:44:20.619Z,9.10
2018-08-11T00:46:48.732Z,6.58
2018-08-11T00:49:17.474Z,9.03
2018-08-11T00:51:45.648Z,9.05
2018-08-11T00:54:13.688Z,7.12
2018-08-11T00:56:41.735Z,8.30
2018-08-11T00:59:09.783Z,5.40
2018-08-11T01:01:37.881Z,7.95
2018-08-11T01:04:05.931Z,8.60
2018-08-11T01:06:33.976Z,10.15
2018-08-11T01:09:02.029Z,6.60
2018-08-11T01:11:30.088Z,6.55
2018-08-11T01:13:58.157Z,8.60
2018-08-11T01:16:26.225Z,7.00
2018-08-11T01:18:54.324Z,5.78
2018-08-11T01:21:22.381Z,5.85
2018-08-11T01:23:50.544Z,6.03
2018-08-11T01:26:18.591Z,7.17
2018-08-11T01:28:46.688Z,6.40
2018-08-11T01:31:14.731Z,8.23
2018-08-11T01:33:42.790Z,7.83
2018-08-11T01:36:10.862Z,5.60
2018-08-11T01:38:38.936Z,4.92
2018-08-11T01:41:06.975Z,7.50
2018-08-11T01:43:35.044Z,5.78
2018-08-11T01:46:09.796Z,7.03
2018-08-11T01:48:37.856Z,6.35
2018-08-11T01:51:05.911Z,6.60
2018-08-11T01:53:33.972Z,7.28
2018-08-11T01:56:02.054Z,4.53
2018-08-11T01:58:30.164Z,7.40
2018-08-11T02:00:58.212Z,6.85
2018-08-11T02:03:26.293Z,6.45
2018-08-11T02:05:54.385Z,6.87
2018-08-11T02:08:22.432Z,5.70
2018-08-11T02:10:50.478Z,5.35
2018-08-11T02:13:18.533Z,5.53
2018-08-11T02:15:46.596Z,6.78
2018-08-11T02:18:14.631Z,6.22
2018-08-11T02:20:42.680Z,6.33
2018-08-11T02:23:10.707Z,4.65
2018-08-11T02:25:38.747Z,7.72
2018-08-11T02:28:06.839Z,5.20
2018-08-11T02:30:34.878Z,5.83
2018-08-11T02:33:02.923Z,8.15
2018-08-11T02:35:30.957Z,7.35
2018-08-11T02:37:59.000Z,4.45
2018-08-11T02:40:27.072Z,7.03
2018-08-11T02:42:55.108Z,6.47
2018-08-11T02:45:23.177Z,8.43
2018-08-11T02:47:51.189Z,7.28
2018-08-11T02:50:19.266Z,6.40
2018-08-11T02:52:47.299Z,7.35
2018-08-11T02:55:15.336Z,7.62
2018-08-11T02:57:43.371Z,8.88
2018-08-11T03:00:12.309Z,7.87
2018-08-11T03:02:40.368Z,6.90
2018-08-11T03:05:08.408Z,5.80
2018-08-11T03:07:36.709Z,6.95
2018-08-11T03:10:05.896Z,5.90
2018-08-11T03:12:33.935Z,6.72
2018-08-11T03:15:01.979Z,7.87
2018-08-11T03:17:30.040Z,7.33
2018-08-11T03:19:58.114Z,6.33
2018-08-11T03:22:26.145Z,5.03
2018-08-11T03:24:54.205Z,4.35
2018-08-11T03:27:22.244Z,7.97
2018-08-11T03:29:50.298Z,6.90
2018-08-11T03:32:18.408Z,8.88
2018-08-11T03:34:46.464Z,9.20
2018-08-11T03:37:14.513Z,6.05
2018-08-11T03:39:42.608Z,9.93
2018-08-11T03:42:10.651Z,5.78
2018-08-11T03:44:38.722Z,7.75
2018-08-11T03:47:06.761Z,8.20
2018-08-11T03:49:34.807Z,6.72
2018-08-11T03:52:02.855Z,4.60
2018-08-11T03:54:30.903Z,6.83
2018-08-11T03:56:58.956Z,7.22
2018-08-11T03:59:27.026Z,5.53
2018-08-11T04:01:55.068Z,6.30
2018-08-11T04:04:23.140Z,4.95
2018-08-11T04:06:51.197Z,5.72
2018-08-11T04:09:19.244Z,6.55
2018-08-11T04:11:47.308Z,6.30
2018-08-11T04:14:15.343Z,6.28
2018-08-11T04:16:43.388Z,5.92
2018-08-11T04:19:11.416Z,5.78
2018-08-11T04:21:39.463Z,3.90
2018-08-11T04:24:08.110Z,4.72
2018-08-11T04:26:36.157Z,4.25
2018-08-11T04:29:04.204Z,5.05
2018-08-11T04:31:32.249Z,3.40
2018-08-11T04:34:00.276Z,5.67
2018-08-11T04:36:28.304Z,3.00
2018-08-11T04:38:56.375Z,4.37
2018-08-11T04:41:24.424Z,3.40
2018-08-11T04:43:52.448Z,3.90
2018-08-11T04:46:20.520Z,3.30
2018-08-11T04:48:48.547Z,4.95
2018-08-11T04:51:16.621Z,4.17
2018-08-11T04:53:44.651Z,2.92
2018-08-11T04:56:12.696Z,3.20
2018-08-11T04:58:40.807Z,3.22
2018-08-11T05:01:08.852Z,3.33
2018-08-11T05:03:36.875Z,2.00
2018-08-11T05:06:04.917Z,2.33
2018-08-11T05:08:32.948Z,2.15
2018-08-11T05:11:01.019Z,3.15
2018-08-11T05:13:29.058Z,3.27
2018-08-11T05:15:57.124Z,1.87
2018-08-11T05:18:25.184Z,2.05
2018-08-11T05:20:53.243Z,1.95
2018-08-11T05:23:21.315Z,1.90
2018-08-11T05:25:49.372Z,2.77
2018-08-11T05:28:17.440Z,2.55
2018-08-11T05:30:45.484Z,2.20
2018-08-11T05:33:13.610Z,4.00
2018-08-11T05:35:41.612Z,3.90
2018-08-11T05:38:09.710Z,4.30
2018-08-11T05:40:37.776Z,2.62
2018-08-11T05:43:05.862Z,4.60
2018-08-11T05:45:33.945Z,2.60
2018-08-11T05:48:02.004Z,3.30
2018-08-11T05:50:30.060Z,3.90
2018-08-11T05:52:58.121Z,4.40
2018-08-11T05:55:26.184Z,2.92
2018-08-11T05:57:54.264Z,3.15
2018-08-11T06:00:22.336Z,4.03
2018-08-11T06:02:50.396Z,2.47
2018-08-11T06:05:18.493Z,2.62
2018-08-11T06:07:46.553Z,2.90
2018-08-11T06:10:14.640Z,3.72
2018-08-11T06:12:42.708Z,4.65
2018-08-11T06:15:10.785Z,4.60
2018-08-11T06:17:38.876Z,5.70
2018-08-11T06:20:08.276Z,2.67
2018-08-11T06:22:36.381Z,3.08
2018-08-11T06:25:05.900Z,4.60
2018-08-11T06:27:33.967Z,6.85
2018-08-11T06:30:02.194Z,4.33
2018-08-11T06:32:30.204Z,4.17
2018-08-11T06:34:58.416Z,5.78
2018-08-11T06:37:26.471Z,3.12
2018-08-11T06:39:54.528Z,4.53
2018-08-11T06:42:22.598Z,3.10
2018-08-11T06:44:50.705Z,2.55
2018-08-11T06:47:18.781Z,3.70
2018-08-11T06:49:46.883Z,2.95
2018-08-11T06:52:14.952Z,2.40
2018-08-11T06:54:43.028Z,2.40
2018-08-11T06:57:11.189Z,3.47
2018-08-11T06:59:39.503Z,3.22
2018-08-11T07:02:07.589Z,2.45
2018-08-11T07:04:35.683Z,3.85
2018-08-11T07:07:04.005Z,2.95
2018-08-11T07:09:32.053Z,2.77
2018-08-11T07:12:00.115Z,2.60
2018-08-11T07:14:28.187Z,4.33
2018-08-11T07:16:56.250Z,4.05
2018-08-11T07:19:24.316Z,7.03
2018-08-11T07:21:52.412Z,4.15
2018-08-11T07:24:20.459Z,4.65
2018-08-11T07:26:48.532Z,6.25
2018-08-11T07:29:16.616Z,6.78
2018-08-11T07:31:44.660Z,4.95
2018-08-11T07:34:12.720Z,3.85
2018-08-11T07:36:40.874Z,5.72
2018-08-11T07:39:09.545Z,5.62
2018-08-11T07:41:37.612Z,7.00
2018-08-11T07:44:05.705Z,8.50
2018-08-11T07:46:33.756Z,9.40
2018-08-11T07:49:02.038Z,9.38
2018-08-11T07:51:30.094Z,11.80
2018-08-11T07:53:58.155Z,10.00
2018-08-11T07:56:26.217Z,8.48
2018-08-11T07:58:54.284Z,10.23
2018-08-11T08:01:22.354Z,8.08
2018-08-11T08:03:50.400Z,13.10
2018-08-11T08:06:18.439Z,9.48
2018-08-11T08:08:46.489Z,7.75
2018-08-11T08:11:14.532Z,11.78
2018-08-11T08:13:42.651Z,7.15
2018-08-11T08:16:10.655Z,7.60
2018-08-11T08:18:38.724Z,13.62
2018-08-11T08:21:06.807Z,11.12
2018-08-11T08:23:34.893Z,14.25
2018-08-11T08:26:03.001Z,10.13
2018-08-11T08:28:31.015Z,8.98
2018-08-11T08:31:05.609Z,7.05
2018-08-11T08:33:33.683Z,9.75
2018-08-11T08:36:02.120Z,11.75
2018-08-11T08:38:30.508Z,10.43
2018-08-11T08:40:58.615Z,10.60
2018-08-11T08:43:27.054Z,11.22
2018-08-11T08:45:55.146Z,11.88
2018-08-11T08:48:23.248Z,11.85
2018-08-11T08:50:51.329Z,9.48
2018-08-11T08:53:19.483Z,7.65
2018-08-11T08:55:47.516Z,13.13
2018-08-11T08:58:15.620Z,10.00
2018-08-11T09:00:43.688Z,10.93
2018-08-11T09:03:11.804Z,14.90
2018-08-11T09:05:39.863Z,9.35
2018-08-11T09:08:07.975Z,12.88
2018-08-11T09:10:36.056Z,13.45
2018-08-11T09:13:04.191Z,12.00
2018-08-11T09:15:32.300Z,8.15
2018-08-11T09:18:00.416Z,8.35
2018-08-11T09:20:28.521Z,8.65
2018-08-11T09:22:56.577Z,10.95
2018-08-11T09:25:24.646Z,9.55
2018-08-11T09:27:52.708Z,11.03
2018-08-11T09:30:20.776Z,9.35
2018-08-11T09:32:48.849Z,11.33
2018-08-11T09:35:16.918Z,11.65
2018-08-11T09:37:45.005Z,10.10
2018-08-11T09:40:13.063Z,12.10
2018-08-11T09:42:41.108Z,10.58
2018-08-11T09:45:09.164Z,10.18
2018-08-11T09:47:37.231Z,9.50
2018-08-11T09:50:05.331Z,9.43
2018-08-11T09:52:33.425Z,8.18
2018-08-11T09:55:01.479Z,6.70
2018-08-11T09:57:29.584Z,6.97
2018-08-11T09:59:57.808Z,9.20
2018-08-11T10:02:25.921Z,8.70
2018-08-11T10:04:53.972Z,7.70
2018-08-11T10:07:22.046Z,6.35
2018-08-11T10:09:50.108Z,10.32
2018-08-11T10:12:18.172Z,8.98
2018-08-11T10:14:46.247Z,9.65
2018-08-11T10:17:14.312Z,7.42
2018-08-11T10:19:42.372Z,10.70
2018-08-11T10:22:10.460Z,10.13
2018-08-11T10:24:38.537Z,18.77
2018-08-11T10:27:06.568Z,9.50
2018-08-11T10:29:34.628Z,8.00
2018-08-11T10:32:02.669Z,4.37
2018-08-11T10:34:30.745Z,6.42
2018-08-11T10:36:58.800Z,8.20
2018-08-11T10:39:26.852Z,6.20
2018-08-11T10:41:54.912Z,7.35
2018-08-11T10:44:22.959Z,3.40
2018-08-11T10:46:51.004Z,7.20
2018-08-11T10:49:19.096Z,8.78
2018-08-11T10:51:47.191Z,8.73
2018-08-11T10:54:15.236Z,5.05
2018-08-11T10:56:43.280Z,8.43
2018-08-11T10:59:11.337Z,6.95
2018-08-11T11:01:39.393Z,8.73
2018-08-11T11:04:07.463Z,8.68
2018-08-11T11:06:35.553Z,9.33
2018-08-11T11:09:04.612Z,6.45
2018-08-11T11:11:32.664Z,7.62
2018-08-11T11:14:00.723Z,4.60
2018-08-11T11:16:28.788Z,5.72
2018-08-11T11:18:56.835Z,10.32
2018-08-11T11:21:24.910Z,9.75
2018-08-11T11:23:52.944Z,8.60
2018-08-11T11:26:20.990Z,6.45
2018-08-11T11:28:49.024Z,5.37
2018-08-11T11:31:17.116Z,10.08
2018-08-11T11:33:45.164Z,5.03
2018-08-11T11:36:13.209Z,6.87
2018-08-11T11:38:41.238Z,6.80
2018-08-11T11:41:09.289Z,12.15
2018-08-11T11:43:37.368Z,10.70
2018-08-11T11:46:05.432Z,13.38
2018-08-11T11:48:33.500Z,12.45
2018-08-11T11:51:01.580Z,11.35
2018-08-11T11:53:29.631Z,12.82
2018-08-11T11:55:57.702Z,9.85
2018-08-11T11:58:25.760Z,10.53
2018-08-11T12:00:53.812Z,9.83
2018-08-11T12:03:21.881Z,11.65
2018-08-11T12:05:49.954Z,9.00
2018-08-11T12:08:17.995Z,12.65
2018-08-11T12:10:46.072Z,10.93
2018-08-11T12:13:14.151Z,10.98
2018-08-11T12:15:42.338Z,11.70
2018-08-11T12:18:10.401Z,9.40
2018-08-11T12:20:38.560Z,7.80
2018-08-11T12:23:06.677Z,9.95
2018-08-11T12:25:34.760Z,6.55
2018-08-11T12:28:02.841Z,16.75
2018-08-11T12:30:30.928Z,9.70
2018-08-11T12:32:59.012Z,4.83
2018-08-11T12:35:27.079Z,10.15
2018-08-11T12:37:55.195Z,7.37
2018-08-11T12:40:23.224Z,9.78
2018-08-11T12:42:51.327Z,13.75
2018-08-11T12:45:19.407Z,10.30
2018-08-11T12:47:47.504Z,5.97
2018-08-11T12:50:15.563Z,9.73
2018-08-11T12:52:43.644Z,7.05
2018-08-11T12:55:11.807Z,8.70
2018-08-11T12:57:39.886Z,11.08
2018-08-11T13:00:09.181Z,9.00
2018-08-11T13:02:37.352Z,13.53
2018-08-11T13:05:05.534Z,10.72
2018-08-11T13:07:33.678Z,7.97
2018-08-11T13:10:01.750Z,3.95
2018-08-11T13:12:30.424Z,9.70
2018-08-11T13:14:58.488Z,7.50
2018-08-11T13:17:26.557Z,7.37
2018-08-11T13:19:54.588Z,7.25
2018-08-11T13:22:23.035Z,7.62
2018-08-11T13:24:51.076Z,5.12
2018-08-11T13:27:19.161Z,5.70
2018-08-11T13:29:47.244Z,8.40
2018-08-11T13:32:15.361Z,7.40
2018-08-11T13:34:43.394Z,6.70
2018-08-11T13:37:11.496Z,4.33
2018-08-11T13:39:46.167Z,4.00
2018-08-11T13:42:14.336Z,3.42
2018-08-11T13:44:42.397Z,4.67
2018-08-11T13:47:10.458Z,5.47
2018-08-11T13:49:38.510Z,4.90
2018-08-11T13:52:06.591Z,4.90
2018-08-11T13:54:34.672Z,5.47
2018-08-11T13:57:02.741Z,5.40
2018-08-11T13:59:30.812Z,8.50
2018-08-11T14:01:58.888Z,7.90
2018-08-11T14:04:26.951Z,7.20
2018-08-11T14:06:55.041Z,8.48
2018-08-11T14:09:23.111Z,5.40
2018-08-11T14:11:51.202Z,7.47
2018-08-11T14:14:19.267Z,13.18
2018-08-11T14:16:47.336Z,8.00
2018-08-11T14:19:15.394Z,5.33
2018-08-11T14:21:43.541Z,9.13
2018-08-11T14:24:11.568Z,9.98
2018-08-11T14:26:39.644Z,10.85
2018-08-11T14:29:07.706Z,10.40
